Time;durP1;ratioP1;P1;durP2;ratioP2;P2;SDS_P1;SDS_P2;PMS_P1;PMS_P2;Temp;Humidity;BMP_temperature;BMP_pressure;BME280_temperature;BME280_humidity;BME280_pressure;Samples;Min_cycle;Max_cycle;Signal;HPM_P1;HPM_P2
2023/08/28 00:00:27;;;;;;;8.70;3.80;;;;;;;14.02;100.00;91617.38;5069582;28;20048;-81
2023/08/28 00:02:54;;;;;;;6.38;3.38;;;;;;;13.98;100.00;91629.63;5069527;28;20048;-80
2023/08/28 00:05:19;;;;;;;6.47;2.88;;;;;;;13.91;100.00;91636.19;5080487;28;20028;-81
2023/08/28 00:07:45;;;;;;;6.65;2.63;;;;;;;13.90;100.00;91632.03;5070423;28;20099;-81
2023/08/28 00:10:10;;;;;;;4.18;2.00;;;;;;;13.95;100.00;91620.53;5049817;28;20033;-81
2023/08/28 00:12:40;;;;;;;4.97;1.88;;;;;;;13.84;100.00;91614.94;5066169;28;20045;-81
2023/08/28 00:15:09;;;;;;;4.28;1.30;;;;;;;13.81;100.00;91606.94;5072697;28;20037;-80
2023/08/28 00:17:36;;;;;;;7.93;2.10;;;;;;;13.71;100.00;91597.59;5066710;28;20029;-81
2023/08/28 00:20:03;;;;;;;3.95;1.65;;;;;;;13.67;100.00;91596.72;5065912;28;20032;-80
2023/08/28 00:22:29;;;;;;;3.92;1.48;;;;;;;13.61;100.00;91598.78;5066645;28;20063;-81
2023/08/28 00:24:54;;;;;;;3.08;1.60;;;;;;;13.59;100.00;91589.69;5052322;28;20041;-81
2023/08/28 00:27:20;;;;;;;3.78;1.70;;;;;;;13.57;100.00;91591.88;5065910;28;20062;-81
2023/08/28 00:29:45;;;;;;;6.43;2.00;;;;;;;13.54;100.00;91567.00;5064856;28;20048;-81
2023/08/28 00:32:11;;;;;;;3.90;1.67;;;;;;;13.49;100.00;91554.84;5029837;28;20175;-80
2023/08/28 00:34:37;;;;;;;3.35;1.63;;;;;;;13.46;100.00;91558.09;5046508;28;20039;-80
2023/08/28 00:37:04;;;;;;;3.22;1.50;;;;;;;13.38;100.00;91566.88;5055355;28;20438;-80
2023/08/28 00:39:30;;;;;;;2.40;1.40;;;;;;;13.39;100.00;91567.63;5047358;28;20033;-81
2023/08/28 00:41:55;;;;;;;2.97;1.40;;;;;;;13.43;100.00;91571.91;5032703;28;20098;-81
2023/08/28 00:44:21;;;;;;;2.45;1.40;;;;;;;13.36;100.00;91576.94;5047290;28;20032;-80
2023/08/28 00:46:47;;;;;;;3.17;1.40;;;;;;;13.31;100.00;91556.13;5078300;28;20052;-80
2023/08/28 00:49:13;;;;;;;4.32;1.50;;;;;;;13.25;100.00;91547.63;5047000;28;20025;-79
2023/08/28 00:51:40;;;;;;;2.65;1.40;;;;;;;13.21;100.00;91517.06;5048725;28;20029;-81
2023/08/28 00:54:07;;;;;;;3.65;1.50;;;;;;;13.21;100.00;91491.56;5048513;28;20079;-80
2023/08/28 00:56:34;;;;;;;2.92;1.55;;;;;;;13.17;100.00;91471.50;5073453;28;20059;-81
2023/08/28 00:59:00;;;;;;;2.58;1.60;;;;;;;13.13;100.00;91453.00;5065385;28;20045;-80
2023/08/28 01:01:25;;;;;;;2.17;1.27;;;;;;;13.16;100.00;91451.59;5068856;28;20048;-81
2023/08/28 01:03:51;;;;;;;3.47;1.35;;;;;;;13.20;100.00;91452.47;5087397;28;20036;-81
2023/08/28 01:06:42;;;;;;;2.10;1.20;;;;;;;13.21;100.00;91448.75;5063046;28;20056;-81
2023/08/28 01:09:45;;;;;;;2.15;1.27;;;;;;;13.22;100.00;91445.03;5070205;28;20040;-81
2023/08/28 01:12:27;;;;;;;2.58;1.30;;;;;;;13.17;100.00;91447.84;5057644;28;20032;-82
2023/08/28 01:15:03;;;;;;;1.83;1.08;;;;;;;13.17;100.00;91463.63;5082732;28;20028;-81
2023/08/28 01:17:31;;;;;;;4.63;1.48;;;;;;;13.10;100.00;91464.94;5075564;28;20032;-81
2023/08/28 01:19:59;;;;;;;2.42;1.20;;;;;;;13.14;100.00;91493.94;5035163;28;20505;-81
2023/08/28 01:22:57;;;;;;;3.35;1.20;;;;;;;13.05;100.00;91467.75;5067538;28;20032;-81
2023/08/28 01:25:25;;;;;;;1.52;1.00;;;;;;;13.03;100.00;91469.94;5066294;28;20139;-81
2023/08/28 01:27:52;;;;;;;2.78;1.10;;;;;;;12.98;100.00;91458.91;5044988;28;20036;-81
2023/08/28 01:30:20;;;;;;;1.92;1.17;;;;;;;12.93;100.00;91453.84;5065117;28;20086;-81
2023/08/28 01:32:46;;;;;;;3.55;1.08;;;;;;;12.89;100.00;91422.22;5067461;28;20040;-82
2023/08/28 01:35:25;;;;;;;1.38;1.00;;;;;;;12.87;100.00;91417.28;5071924;28;20044;-81
2023/08/28 01:38:07;;;;;;;1.35;0.95;;;;;;;12.89;100.00;91422.97;5051098;28;20123;-82
2023/08/28 01:40:39;;;;;;;1.00;0.90;;;;;;;12.77;100.00;91396.69;5077246;28;20024;-81
2023/08/28 01:43:09;;;;;;;;;;;;;;;12.76;100.00;91376.00;5086183;28;20032;-81
2023/08/28 01:45:37;;;;;;;2.00;1.08;;;;;;;12.80;100.00;91361.13;5048804;28;19974;-82
2023/08/28 01:48:03;;;;;;;2.45;1.10;;;;;;;12.76;100.00;91339.25;5064943;28;20032;-82
2023/08/28 01:50:29;;;;;;;1.33;1.05;;;;;;;12.77;100.00;91348.66;5066373;28;20071;-81
2023/08/28 01:52:55;;;;;;;1.52;1.05;;;;;;;12.79;100.00;91355.13;5031955;28;20033;-83
2023/08/28 01:55:45;;;;;;;2.03;1.00;;;;;;;12.79;100.00;91307.06;5045240;28;20040;-83
2023/08/28 01:58:11;;;;;;;4.78;1.42;;;;;;;12.83;100.00;91284.31;5045838;28;20093;-81
2023/08/28 02:00:37;;;;;;;2.13;1.15;;;;;;;12.76;100.00;91253.34;5054014;28;20044;-82
2023/08/28 02:03:02;;;;;;;1.92;1.17;;;;;;;12.74;100.00;91242.41;5083297;28;20036;-82
2023/08/28 02:05:28;;;;;;;2.92;1.17;;;;;;;12.68;100.00;91231.38;5062466;28;20056;-83
2023/08/28 02:07:54;;;;;;;3.35;1.48;;;;;;;12.72;100.00;91207.84;5046096;28;20040;-81
2023/08/28 02:10:20;;;;;;;2.17;1.13;;;;;;;12.77;100.00;91220.00;5053719;28;20033;-82
2023/08/28 02:12:45;;;;;;;4.95;1.90;;;;;;;12.76;100.00;91213.22;5081993;28;20055;-82
2023/08/28 02:15:11;;;;;;;2.70;1.50;;;;;;;12.90;100.00;91239.88;5065440;28;20070;-82
2023/08/28 02:17:37;;;;;;;2.97;1.35;;;;;;;12.94;100.00;91230.25;5084877;28;20037;-81
2023/08/28 02:20:03;;;;;;;1.80;1.17;;;;;;;12.93;100.00;91226.09;5064293;28;20068;-82
2023/08/28 02:22:28;;;;;;;1.70;1.00;;;;;;;12.88;100.00;91221.09;5048444;28;20040;-81
2023/08/28 02:24:54;;;;;;;1.90;1.05;;;;;;;12.83;100.00;91227.31;5064988;28;20040;-81
2023/08/28 02:27:20;;;;;;;1.23;1.00;;;;;;;12.85;100.00;91217.22;5061668;28;20032;-82
2023/08/28 02:29:45;;;;;;;2.13;0.90;;;;;;;12.89;100.00;91214.72;5051204;28;20032;-82
2023/08/28 02:32:11;;;;;;;0.75;0.70;;;;;;;12.89;100.00;91239.13;5050547;28;20041;-82
2023/08/28 02:34:36;;;;;;;1.23;0.93;;;;;;;12.90;100.00;91196.03;5074979;28;20492;-82
2023/08/28 02:37:02;;;;;;;1.40;0.95;;;;;;;12.94;100.00;91198.72;5047250;28;20032;-81
2023/08/28 02:39:28;;;;;;;1.92;1.23;;;;;;;12.91;100.00;91246.69;5062988;28;20070;-82
2023/08/28 02:41:53;;;;;;;2.35;0.93;;;;;;;12.88;100.00;91244.72;5054074;28;20108;-83
2023/08/28 02:44:19;;;;;;;2.05;1.20;;;;;;;12.90;100.00;91203.09;5050132;28;20041;-82
2023/08/28 02:46:45;;;;;;;2.28;1.10;;;;;;;12.96;100.00;91203.66;5032808;28;20045;-82
2023/08/28 02:49:10;;;;;;;1.42;1.00;;;;;;;13.02;100.00;91215.47;5036412;28;20399;-82
2023/08/28 02:51:36;;;;;;;2.58;1.50;;;;;;;13.01;100.00;91216.56;5057369;28;20541;-82
2023/08/28 02:54:02;;;;;;;1.73;1.10;;;;;;;13.08;100.00;91241.19;5058965;28;20033;-82
2023/08/28 02:56:43;;;;;;;1.98;1.25;;;;;;;13.01;100.00;91204.19;5076212;28;20051;-81
2023/08/28 02:59:08;;;;;;;1.65;0.95;;;;;;;13.00;100.00;91210.53;5051664;28;20154;-81
2023/08/28 03:01:34;;;;;;;2.20;1.13;;;;;;;13.05;100.00;91170.91;5077307;28;20044;-82
2023/08/28 03:04:09;;;;;;;2.30;0.80;;;;;;;13.05;100.00;91189.28;5062815;28;20449;-83
2023/08/28 03:06:39;;;;;;;2.10;1.10;;;;;;;13.02;100.00;91195.22;5060224;28;20090;-82
2023/08/28 03:09:07;;;;;;;2.50;1.25;;;;;;;13.08;100.00;91167.63;5046862;28;20041;-83
2023/08/28 03:11:34;;;;;;;3.67;1.50;;;;;;;13.10;100.00;91162.03;5076929;28;20051;-82
2023/08/28 03:14:00;;;;;;;3.03;1.50;;;;;;;13.15;100.00;91161.81;5082291;28;20382;-82
2023/08/28 03:16:25;;;;;;;5.00;1.90;;;;;;;13.11;100.00;91156.44;5066822;28;20037;-82
2023/08/28 03:18:51;;;;;;;4.50;1.85;;;;;;;13.15;100.00;91126.88;5067253;28;20066;-82
2023/08/28 03:21:16;;;;;;;5.72;2.88;;;;;;;13.21;100.00;91126.31;5083079;28;20037;-82
2023/08/28 03:23:42;;;;;;;5.97;3.08;;;;;;;13.31;100.00;91127.72;5060283;28;20032;-83
2023/08/28 03:26:08;;;;;;;4.68;2.67;;;;;;;13.42;100.00;91106.97;5051561;28;20033;-83
2023/08/28 03:28:33;;;;;;;5.28;2.80;;;;;;;13.46;100.00;91121.72;5058783;28;20044;-83
2023/08/28 03:31:00;;;;;;;6.85;3.10;;;;;;;13.49;100.00;91118.44;5061046;28;20036;-82
2023/08/28 03:33:27;;;;;;;6.90;3.42;;;;;;;13.56;100.00;91136.25;5082630;28;20057;-83
2023/08/28 03:35:53;;;;;;;6.53;3.28;;;;;;;13.65;100.00;91131.59;5063087;28;20475;-81
2023/08/28 03:38:19;;;;;;;6.00;3.05;;;;;;;13.69;100.00;91137.72;5069097;28;20048;-82
2023/08/28 03:40:45;;;;;;;6.32;3.53;;;;;;;13.79;100.00;91136.47;5082605;28;20029;-82
2023/08/28 03:43:11;;;;;;;9.73;3.72;;;;;;;13.81;100.00;91099.31;5055986;28;20462;-82
2023/08/28 03:45:38;;;;;;;11.68;3.95;;;;;;;13.83;100.00;91103.13;5071707;28;20038;-82
2023/08/28 03:48:04;;;;;;;7.63;2.88;;;;;;;13.81;100.00;91097.44;5069712;28;20028;-81
2023/08/28 03:50:30;;;;;;;5.57;2.97;;;;;;;13.84;100.00;91109.13;5089940;28;20045;-83
2023/08/28 03:52:57;;;;;;;6.43;3.03;;;;;;;13.85;100.00;91119.34;5071945;28;20039;-82
2023/08/28 03:55:23;;;;;;;6.57;3.72;;;;;;;13.83;100.00;91136.56;5067303;28;20604;-82
2023/08/28 03:57:50;;;;;;;9.27;3.70;;;;;;;13.86;100.00;91123.47;5064968;28;20052;-82
2023/08/28 04:00:16;;;;;;;5.07;2.92;;;;;;;13.91;100.00;91128.47;5061843;28;20056;-83
2023/08/28 04:02:42;;;;;;;7.40;4.00;;;;;;;13.92;100.00;91122.13;5086796;28;20071;-82
2023/08/28 04:05:08;;;;;;;8.38;3.60;;;;;;;14.01;100.00;91121.22;5050442;28;20043;-83
2023/08/28 04:07:34;;;;;;;5.80;2.78;;;;;;;13.94;100.00;91112.03;5047452;28;20024;-82
2023/08/28 04:10:01;;;;;;;7.07;3.83;;;;;;;13.98;100.00;91119.25;5065959;28;20093;-83
2023/08/28 04:12:26;;;;;;;8.50;4.53;;;;;;;14.01;100.00;91115.94;5079798;28;20049;-82
2023/08/28 04:14:52;;;;;;;10.93;3.63;;;;;;;14.10;100.00;91119.16;5076947;28;20063;-82
2023/08/28 04:17:17;;;;;;;8.68;3.83;;;;;;;14.10;100.00;91117.28;5058489;28;20037;-82
2023/08/28 04:19:43;;;;;;;8.18;4.35;;;;;;;14.12;100.00;91119.59;5064453;28;20029;-82
2023/08/28 04:22:09;;;;;;;7.07;3.90;;;;;;;14.18;100.00;91123.47;5066576;28;20040;-82
2023/08/28 04:24:34;;;;;;;8.00;3.65;;;;;;;14.20;100.00;91118.63;5070012;28;20029;-81
2023/08/28 04:27:00;;;;;;;7.90;4.57;;;;;;;14.18;100.00;91109.56;5061824;28;20044;-81
2023/08/28 04:29:26;;;;;;;10.55;6.07;;;;;;;14.30;100.00;91115.50;5051825;28;20055;-81
2023/08/28 04:31:52;;;;;;;8.40;5.10;;;;;;;14.34;100.00;91115.56;5072098;28;20029;-83
2023/08/28 04:34:18;;;;;;;10.68;5.85;;;;;;;14.37;100.00;91120.16;5049737;28;20048;-83
2023/08/28 04:36:44;;;;;;;9.52;5.75;;;;;;;14.40;100.00;91108.19;5053818;28;20029;-82
2023/08/28 04:39:09;;;;;;;9.52;5.50;;;;;;;14.45;100.00;91116.56;5058410;28;20032;-83
2023/08/28 04:41:35;;;;;;;9.90;6.10;;;;;;;14.77;100.00;91117.31;5048418;28;20033;-83
2023/08/28 04:44:01;;;;;;;13.05;6.35;;;;;;;14.88;100.00;91116.75;5076750;28;20135;-83
2023/08/28 04:46:28;;;;;;;13.32;5.50;;;;;;;14.90;100.00;91119.78;5031961;28;20040;-84
2023/08/28 04:48:54;;;;;;;7.07;4.32;;;;;;;14.97;100.00;91119.94;5047713;28;20522;-81
2023/08/28 04:51:20;;;;;;;9.43;5.53;;;;;;;15.14;100.00;91122.16;5031647;28;20037;-84
2023/08/28 04:53:48;;;;;;;10.25;5.07;;;;;;;15.19;100.00;91129.03;5054813;28;20092;-84
2023/08/28 04:56:13;;;;;;;10.93;5.45;;;;;;;15.12;100.00;91147.34;5038737;28;20056;-83
2023/08/28 04:58:39;;;;;;;11.25;5.65;;;;;;;15.28;100.00;91128.84;5059952;28;20064;-83
2023/08/28 05:01:06;;;;;;;10.30;6.05;;;;;;;15.16;100.00;91125.22;5059005;28;20283;-84
2023/08/28 05:03:32;;;;;;;15.25;6.53;;;;;;;15.06;100.00;91125.75;5035322;28;20551;-83
2023/08/28 05:05:58;;;;;;;12.55;6.40;;;;;;;14.99;100.00;91138.81;5055446;28;20044;-83
2023/08/28 05:08:25;;;;;;;12.10;6.72;;;;;;;14.93;100.00;91121.75;5059153;28;20108;-83
2023/08/28 05:10:50;;;;;;;18.50;6.65;;;;;;;14.88;100.00;91124.66;5047281;28;20044;-83
2023/08/28 05:13:17;;;;;;;12.85;7.07;;;;;;;14.81;100.00;91104.19;5048890;28;20042;-83
2023/08/28 05:15:43;;;;;;;15.45;7.35;;;;;;;14.76;100.00;91089.41;5066179;28;20059;-84
2023/08/28 05:18:11;;;;;;;14.95;8.27;;;;;;;14.75;100.00;91106.34;5047125;28;20132;-83
2023/08/28 05:20:37;;;;;;;16.45;8.52;;;;;;;14.75;100.00;91147.72;5047599;28;20466;-83
2023/08/28 05:23:03;;;;;;;11.40;5.30;;;;;;;14.81;100.00;91193.00;5047654;28;20033;-83
2023/08/28 05:25:30;;;;;;;10.35;5.75;;;;;;;14.51;100.00;91172.38;5049166;28;20025;-84
2023/08/28 05:27:56;;;;;;;11.15;3.40;;;;;;;14.32;100.00;91171.19;5047429;28;20038;-83
2023/08/28 05:30:23;;;;;;;9.90;4.22;;;;;;;14.14;100.00;91177.91;5031911;28;20035;-84
2023/08/28 05:32:48;;;;;;;12.25;5.55;;;;;;;14.07;100.00;91182.97;5044343;28;20025;-83
2023/08/28 05:35:14;;;;;;;11.00;5.95;;;;;;;14.08;100.00;91201.06;5063274;28;20033;-84
2023/08/28 05:37:40;;;;;;;16.17;6.28;;;;;;;14.05;100.00;91204.38;5066760;28;20036;-83
2023/08/28 05:40:08;;;;;;;27.00;7.95;;;;;;;14.08;100.00;91189.78;5063666;28;20096;-83
2023/08/28 05:42:35;;;;;;;10.68;5.28;;;;;;;14.07;100.00;91143.50;5048929;28;20041;-84
2023/08/28 05:45:01;;;;;;;13.05;5.82;;;;;;;14.00;100.00;91154.63;5053058;28;20040;-85
2023/08/28 05:47:27;;;;;;;11.07;6.15;;;;;;;13.96;100.00;91169.59;5046933;28;20479;-83
2023/08/28 05:49:52;;;;;;;13.80;7.05;;;;;;;13.95;100.00;91171.44;5048394;28;20128;-84
2023/08/28 05:52:18;;;;;;;14.75;7.22;;;;;;;13.98;100.00;91179.75;5049774;28;20373;-83
2023/08/28 05:54:46;;;;;;;17.20;6.90;;;;;;;13.98;100.00;91179.75;5063539;28;20033;-84
2023/08/28 05:57:14;;;;;;;11.57;4.97;;;;;;;13.96;100.00;91193.25;5051143;28;20084;-83
2023/08/28 05:59:39;;;;;;;9.50;4.60;;;;;;;13.80;100.00;91179.28;5012281;28;20069;-82
2023/08/28 06:02:05;;;;;;;8.98;4.82;;;;;;;13.73;100.00;91172.78;5034183;28;20040;-84
2023/08/28 06:04:32;;;;;;;12.55;6.40;;;;;;;13.74;100.00;91182.19;5064374;28;20438;-83
2023/08/28 06:06:58;;;;;;;10.73;6.40;;;;;;;13.84;100.00;91180.16;5046677;28;20029;-83
2023/08/28 06:09:23;;;;;;;12.32;6.30;;;;;;;13.88;100.00;91166.00;5027583;28;20037;-83
2023/08/28 06:11:49;;;;;;;12.38;6.68;;;;;;;13.96;100.00;91164.31;5044668;28;20122;-83
2023/08/28 06:14:14;;;;;;;12.23;6.35;;;;;;;14.11;100.00;91175.94;5060814;28;20528;-83
2023/08/28 06:16:41;;;;;;;11.10;6.43;;;;;;;14.16;100.00;91183.56;5052873;28;20044;-83
2023/08/28 06:19:07;;;;;;;12.57;6.38;;;;;;;14.19;100.00;91198.69;5053412;28;20037;-84
2023/08/28 06:21:32;;;;;;;11.35;6.15;;;;;;;14.22;100.00;91187.50;5050694;28;20040;-84
2023/08/28 06:23:58;;;;;;;12.25;6.43;;;;;;;14.25;100.00;91193.94;5050057;28;20033;-85
2023/08/28 06:26:23;;;;;;;13.75;6.22;;;;;;;14.27;100.00;91192.50;5053089;28;20038;-85
2023/08/28 06:28:50;;;;;;;13.93;6.22;;;;;;;14.32;100.00;91187.00;5049389;28;20068;-83
2023/08/28 06:31:17;;;;;;;11.30;6.05;;;;;;;14.38;100.00;91182.22;5062721;28;20041;-84
2023/08/28 06:33:43;;;;;;;10.55;6.28;;;;;;;14.43;100.00;91175.94;5062965;28;20423;-83
2023/08/28 06:36:08;;;;;;;12.25;6.35;;;;;;;14.49;100.00;91179.84;5064632;28;20040;-84
2023/08/28 06:38:34;;;;;;;13.50;6.20;;;;;;;14.53;100.00;91167.53;5064859;28;20040;-84
2023/08/28 06:41:01;;;;;;;10.15;5.50;;;;;;;14.54;100.00;91179.56;5057609;28;20068;-83
2023/08/28 06:43:28;;;;;;;11.30;6.18;;;;;;;14.58;100.00;91177.81;5047193;28;20109;-83
2023/08/28 06:45:54;;;;;;;10.80;5.40;;;;;;;14.56;100.00;91169.50;5053645;28;20029;-83
2023/08/28 06:48:20;;;;;;;8.80;5.18;;;;;;;14.57;100.00;91161.25;5061354;28;20422;-83
2023/08/28 06:50:46;;;;;;;7.63;4.43;;;;;;;14.56;100.00;91169.50;5057591;28;20085;-83
2023/08/28 06:53:12;;;;;;;9.20;5.28;;;;;;;14.47;100.00;91172.28;5064443;28;20502;-83
2023/08/28 06:55:37;;;;;;;9.65;5.20;;;;;;;14.43;100.00;91171.41;5048603;28;20093;-82
2023/08/28 06:58:03;;;;;;;12.98;4.97;;;;;;;14.40;100.00;91160.81;5030414;28;20065;-83
2023/08/28 07:00:29;;;;;;;10.13;4.70;;;;;;;14.47;100.00;91164.38;5050638;28;20071;-85
2023/08/28 07:02:55;;;;;;;8.07;4.60;;;;;;;14.53;100.00;91168.28;5045939;28;20097;-83
2023/08/28 07:05:21;;;;;;;9.00;4.90;;;;;;;14.44;100.00;91169.56;5055842;28;20041;-85
2023/08/28 07:07:47;;;;;;;6.60;3.83;;;;;;;14.41;100.00;91170.25;5074661;28;20033;-83
2023/08/28 07:10:12;;;;;;;7.57;4.03;;;;;;;14.41;100.00;91162.34;5051097;28;20037;-83
2023/08/28 07:12:38;;;;;;;9.57;4.20;;;;;;;14.41;100.00;91159.72;5076735;28;20039;-84
2023/08/28 07:15:29;;;;;;;9.70;4.47;;;;;;;14.41;100.00;91160.50;5079866;28;20124;-83
2023/08/28 07:17:54;;;;;;;9.30;4.05;;;;;;;14.38;100.00;91156.66;5053550;28;20105;-83
2023/08/28 07:20:23;;;;;;;7.03;3.85;;;;;;;14.44;100.00;91148.50;5073648;28;20036;-83
2023/08/28 07:22:49;;;;;;;8.63;4.18;;;;;;;14.41;100.00;91141.28;5082329;28;20045;-83
2023/08/28 07:25:21;;;;;;;8.48;3.88;;;;;;;14.43;100.00;91137.19;5040625;28;20036;-83
2023/08/28 07:27:47;;;;;;;;;;;;;;;14.47;100.00;91147.81;5058102;28;20047;-83
2023/08/28 07:30:13;;;;;;;5.45;2.90;;;;;;;14.54;100.00;91134.81;5088472;28;20001;-84
2023/08/28 07:32:39;;;;;;;5.45;2.58;;;;;;;14.53;100.00;91125.41;5071241;28;20028;-84
2023/08/28 07:35:05;;;;;;;5.93;2.40;;;;;;;14.53;100.00;91120.13;5038480;28;20040;-83
2023/08/28 07:37:33;;;;;;;6.47;2.95;;;;;;;14.52;100.00;91126.50;5079953;28;20059;-84
2023/08/28 07:39:59;;;;;;;6.05;2.78;;;;;;;14.53;100.00;91141.94;5069155;28;20051;-83
2023/08/28 07:42:25;;;;;;;5.10;2.85;;;;;;;14.46;100.00;91146.31;5068628;28;20033;-83
2023/08/28 07:44:50;;;;;;;4.45;2.30;;;;;;;14.58;100.00;91138.31;5069349;28;20495;-84
2023/08/28 07:47:16;;;;;;;4.88;2.60;;;;;;;14.62;100.00;91139.16;5079885;28;20051;-83
2023/08/28 07:49:43;;;;;;;4.00;2.20;;;;;;;14.55;100.00;91141.66;5070434;28;20055;-83
2023/08/28 07:52:09;;;;;;;5.55;2.10;;;;;;;14.50;100.00;91157.66;5069391;28;20029;-84
2023/08/28 07:54:34;;;;;;;3.58;1.60;;;;;;;14.30;100.00;91144.44;5070067;28;20032;-84
2023/08/28 07:57:00;;;;;;;3.50;1.60;;;;;;;14.17;100.00;91143.00;5069937;28;20101;-83
2023/08/28 07:59:25;;;;;;;4.05;1.40;;;;;;;14.08;100.00;91168.72;5019921;28;20057;-83
2023/08/28 08:01:51;;;;;;;2.25;1.17;;;;;;;13.93;100.00;91157.84;5036139;28;20071;-84
2023/08/28 08:04:17;;;;;;;2.40;1.40;;;;;;;13.77;100.00;91164.19;5069667;28;20067;-83
2023/08/28 08:06:42;;;;;;;3.10;1.63;;;;;;;13.74;100.00;91165.63;5068821;28;20037;-83
2023/08/28 08:09:09;;;;;;;2.67;1.40;;;;;;;13.69;100.00;91148.25;5050260;28;20051;-83
2023/08/28 08:11:35;;;;;;;4.95;1.60;;;;;;;13.67;100.00;91183.88;5066514;28;20096;-83
2023/08/28 08:14:00;;;;;;;4.25;1.58;;;;;;;13.56;100.00;91211.75;5075650;28;20025;-84
2023/08/28 08:16:26;;;;;;;4.68;1.85;;;;;;;13.38;100.00;91230.41;5052818;28;20048;-83
2023/08/28 08:18:52;;;;;;;3.50;1.63;;;;;;;13.10;100.00;91223.25;5066509;28;20033;-84
2023/08/28 08:21:17;;;;;;;3.00;1.50;;;;;;;13.08;100.00;91235.16;5085718;28;20036;-83
2023/08/28 08:23:43;;;;;;;8.70;1.70;;;;;;;12.95;100.00;91234.44;5092828;28;20026;-83
2023/08/28 08:26:09;;;;;;;3.60;1.27;;;;;;;12.79;100.00;91246.66;5056494;28;20032;-83
2023/08/28 08:28:35;;;;;;;1.75;1.20;;;;;;;12.73;100.00;91250.63;5075339;28;20028;-83
2023/08/28 08:31:00;;;;;;;3.50;1.52;;;;;;;12.59;100.00;91235.97;5070457;28;20295;-83
2023/08/28 08:33:26;;;;;;;2.60;1.30;;;;;;;12.53;100.00;91253.03;5073650;28;20037;-82
2023/08/28 08:35:51;;;;;;;3.75;1.48;;;;;;;12.44;100.00;91249.75;5089162;28;20052;-83
2023/08/28 08:38:17;;;;;;;4.47;1.20;;;;;;;12.43;100.00;91284.97;5065561;28;20043;-83
2023/08/28 08:40:43;;;;;;;1.67;1.20;;;;;;;12.45;100.00;91298.50;5065421;28;20341;-83
2023/08/28 08:43:09;;;;;;;5.70;1.20;;;;;;;12.44;100.00;91291.72;5053376;28;20045;-82
2023/08/28 08:45:37;;;;;;;3.63;1.30;;;;;;;12.49;100.00;91278.38;5060100;28;20376;-83
2023/08/28 08:48:06;;;;;;;3.58;1.40;;;;;;;12.58;100.00;91265.94;5090292;28;20036;-83
2023/08/28 08:50:36;;;;;;;5.03;1.50;;;;;;;12.58;100.00;91281.69;5090284;28;20036;-82
2023/08/28 08:53:09;;;;;;;3.25;1.45;;;;;;;12.59;100.00;91290.34;5085554;28;20021;-83
2023/08/28 08:55:46;;;;;;;4.07;1.48;;;;;;;12.50;100.00;91282.56;5080881;28;20090;-82
2023/08/28 08:58:15;;;;;;;2.60;1.33;;;;;;;12.54;100.00;91286.06;5066586;28;20533;-83
2023/08/28 09:00:43;;;;;;;4.32;1.52;;;;;;;12.58;100.00;91283.53;5067578;28;20032;-82
2023/08/28 09:03:10;;;;;;;3.08;1.35;;;;;;;12.59;100.00;91283.22;5076197;28;20063;-82
2023/08/28 09:05:36;;;;;;;5.43;1.45;;;;;;;12.63;100.00;91284.09;5082938;28;20058;-83
2023/08/28 09:08:06;;;;;;;8.05;1.88;;;;;;;12.63;100.00;91278.06;5083095;28;20455;-83
2023/08/28 09:10:33;;;;;;;4.72;1.38;;;;;;;12.61;100.00;91286.28;5067108;28;20097;-83
2023/08/28 09:12:59;;;;;;;5.70;1.33;;;;;;;12.64;100.00;91290.88;5073193;28;20219;-84
2023/08/28 09:15:26;;;;;;;3.40;1.50;;;;;;;12.66;100.00;91298.44;5061046;28;20056;-84
2023/08/28 09:17:52;;;;;;;4.22;1.38;;;;;;;12.67;100.00;91277.09;5072008;28;20036;-84
2023/08/28 09:20:21;;;;;;;3.38;0.98;;;;;;;12.65;100.00;91266.16;5050300;28;20041;-84
2023/08/28 09:22:53;;;;;;;2.85;1.17;;;;;;;12.66;100.00;91256.44;5041798;28;20081;-84
2023/08/28 09:25:22;;;;;;;4.75;1.40;;;;;;;12.65;100.00;91255.66;5068073;28;20112;-83
2023/08/28 09:27:49;;;;;;;2.88;1.38;;;;;;;12.64;100.00;91251.50;5050355;28;20043;-84
2023/08/28 09:30:30;;;;;;;4.32;1.20;;;;;;;12.67;100.00;91253.47;5067338;28;20035;-84
2023/08/28 09:33:00;;;;;;;2.95;1.20;;;;;;;12.55;100.00;91248.22;5071279;28;20068;-84
2023/08/28 09:35:28;;;;;;;2.55;1.33;;;;;;;12.53;100.00;91266.16;5053494;28;20029;-83
2023/08/28 09:38:01;;;;;;;3.30;1.83;;;;;;;12.58;100.00;91271.19;5053567;28;20009;-84
2023/08/28 09:40:39;;;;;;;2.33;1.15;;;;;;;12.34;100.00;91292.13;5054142;28;20021;-84
2023/08/28 09:43:15;;;;;;;2.42;1.40;;;;;;;12.29;100.00;91288.66;5054050;28;20037;-84
2023/08/28 09:45:43;;;;;;;5.18;1.30;;;;;;;12.24;100.00;91288.84;5071354;28;20037;-84
2023/08/28 09:48:10;;;;;;;2.00;1.10;;;;;;;12.20;100.00;91295.81;5054081;28;20039;-84
2023/08/28 09:50:39;;;;;;;2.08;1.00;;;;;;;12.18;100.00;91303.28;5070393;28;20033;-84
2023/08/28 09:53:12;;;;;;;1.27;0.90;;;;;;;12.14;100.00;91312.88;5070491;28;20033;-82
2023/08/28 09:55:39;;;;;;;1.48;0.90;;;;;;;12.15;100.00;91338.00;5053010;28;20044;-83
2023/08/28 09:58:09;;;;;;;1.20;0.80;;;;;;;12.21;100.00;91341.97;5051795;28;20033;-83
2023/08/28 10:00:42;;;;;;;1.77;0.95;;;;;;;12.12;100.00;91353.66;5071635;28;20036;-83
2023/08/28 10:03:12;;;;;;;1.73;1.00;;;;;;;12.04;100.00;91357.88;5090490;28;20374;-84
2023/08/28 10:05:43;;;;;;;0.98;0.60;;;;;;;12.01;100.00;91359.28;5056746;28;20116;-84
2023/08/28 10:08:16;;;;;;;0.98;0.80;;;;;;;11.92;100.00;91339.47;5071864;28;20044;-81
2023/08/28 10:10:52;;;;;;;1.23;0.80;;;;;;;11.91;100.00;91348.41;5064870;28;20300;-83
2023/08/28 10:13:22;;;;;;;1.02;0.70;;;;;;;11.87;100.00;91372.66;5051636;28;20028;-82
2023/08/28 10:16:03;;;;;;;0.70;0.70;;;;;;;11.86;100.00;91360.59;5048095;28;20032;-83
2023/08/28 10:19:12;;;;;;;1.02;0.75;;;;;;;11.88;100.00;91355.81;5068515;28;20033;-82
2023/08/28 10:21:39;;;;;;;0.60;0.60;;;;;;;11.88;100.00;91366.31;5057323;28;20486;-81
2023/08/28 10:24:07;;;;;;;1.13;0.70;;;;;;;11.90;100.00;91380.97;5072646;28;20036;-82
2023/08/28 10:26:34;;;;;;;1.40;0.80;;;;;;;11.91;100.00;91383.28;5089745;28;20044;-82
2023/08/28 10:29:00;;;;;;;0.55;0.55;;;;;;;11.91;100.00;91387.75;5056916;28;20131;-81
2023/08/28 10:31:29;;;;;;;1.75;0.70;;;;;;;11.87;100.00;91377.91;5085687;28;20039;-82
2023/08/28 10:34:06;;;;;;;0.82;0.70;;;;;;;11.91;100.00;91375.41;5081587;28;20029;-82
2023/08/28 10:36:35;;;;;;;1.70;0.70;;;;;;;11.90;100.00;91375.72;5060142;28;20074;-80
2023/08/28 10:39:02;;;;;;;1.63;0.80;;;;;;;11.91;100.00;91382.50;5076266;28;20671;-81
2023/08/28 10:41:29;;;;;;;1.92;0.80;;;;;;;11.86;100.00;91384.19;5079170;28;20128;-82
2023/08/28 10:43:57;;;;;;;4.55;1.40;;;;;;;11.81;100.00;91397.50;5047220;28;20136;-83
2023/08/28 10:46:27;;;;;;;2.47;1.20;;;;;;;11.69;100.00;91404.53;5067433;28;20032;-83
2023/08/28 10:48:58;;;;;;;1.23;0.80;;;;;;;11.67;100.00;91404.84;5048490;28;20041;-83
2023/08/28 10:51:37;;;;;;;1.83;1.10;;;;;;;11.73;100.00;91403.59;5057204;28;20040;-83
2023/08/28 10:54:09;;;;;;;1.08;0.85;;;;;;;11.78;100.00;91406.00;5085105;28;20092;-80
2023/08/28 10:56:36;;;;;;;0.80;0.70;;;;;;;11.81;100.00;91394.88;5084027;28;20047;-83
2023/08/28 10:59:42;;;;;;;1.17;0.75;;;;;;;11.84;100.00;91396.09;5083982;28;20343;-83
2023/08/28 11:02:09;;;;;;;1.48;0.90;;;;;;;11.87;100.00;91396.25;5041935;28;20105;-80
2023/08/28 11:04:37;;;;;;;1.27;0.88;;;;;;;11.92;100.00;91384.03;5066948;28;20040;-82
2023/08/28 11:07:04;;;;;;;4.05;1.10;;;;;;;11.90;100.00;91368.63;5079031;28;20380;-82
2023/08/28 11:09:30;;;;;;;6.80;1.20;;;;;;;11.95;100.00;91367.66;5045314;28;20104;-82
2023/08/28 11:11:58;;;;;;;2.45;0.90;;;;;;;11.95;100.00;91357.16;5068366;28;20035;-83
2023/08/28 11:14:54;;;;;;;2.85;0.80;;;;;;;11.93;100.00;91354.09;5082875;28;20051;-82
2023/08/28 11:17:22;;;;;;;1.05;0.80;;;;;;;11.93;100.00;91354.09;5070469;28;20087;-82
2023/08/28 11:19:53;;;;;;;0.93;0.73;;;;;;;11.91;100.00;91354.44;5046818;28;20052;-82
2023/08/28 11:22:33;;;;;;;0.60;0.60;;;;;;;11.91;100.00;91359.69;5075576;28;20032;-83
2023/08/28 11:25:00;;;;;;;3.05;0.88;;;;;;;11.92;100.00;91349.97;5073228;28;20036;-82
2023/08/28 11:27:35;;;;;;;0.50;0.50;;;;;;;11.92;100.00;91350.72;5067406;28;20363;-83